createdAt,value
2023-04-06T00:02:26.165Z,755.13
2023-04-06T00:05:32.304Z,554.98
2023-04-06T00:08:39.452Z,491.61
2023-04-06T00:11:45.392Z,467.15
2023-04-06T00:14:54.949Z,445.43
2023-04-06T00:18:00.998Z,438.26
2023-04-06T00:21:08.475Z,463.61
2023-04-06T00:24:14.396Z,442.85
2023-04-06T00:27:21.321Z,441.51
2023-04-06T00:30:29.929Z,421.51
2023-04-06T00:33:37.336Z,409.71
2023-04-06T00:36:43.371Z,394.09
2023-04-06T00:39:50.397Z,391.47
2023-04-06T00:42:56.624Z,392.93
2023-04-06T00:46:08.017Z,397.95
2023-04-06T00:49:14.095Z,394.76
2023-04-06T00:52:21.258Z,396.88
2023-04-06T00:55:28.150Z,404.04
2023-04-06T00:58:39.293Z,405.88
2023-04-06T01:01:49.810Z,417.08
2023-04-06T01:05:21.782Z,421.76
2023-04-06T01:08:32.063Z,418.92
2023-04-06T01:11:52.334Z,431.41
2023-04-06T01:15:02.789Z,437.50
2023-04-06T01:18:15.469Z,444.08
2023-04-06T01:21:31.322Z,442.72
2023-04-06T01:25:03.837Z,452.52
2023-04-06T01:28:15.491Z,465.53
2023-04-06T01:31:36.600Z,477.25
2023-04-06T01:34:42.770Z,479.25
2023-04-06T01:37:49.910Z,472.21
2023-04-06T01:41:06.542Z,469.51
2023-04-06T01:44:24.561Z,478.44
2023-04-06T01:47:43.064Z,465.12
2023-04-06T01:50:51.627Z,464.12
2023-04-06T01:54:02.955Z,464.90
2023-04-06T01:57:32.329Z,454.81
2023-04-06T02:00:48.268Z,444.73
2023-04-06T02:03:56.061Z,437.57
2023-04-06T02:07:02.066Z,450.73
2023-04-06T02:10:17.219Z,446.82
2023-04-06T02:13:27.085Z,452.60
2023-04-06T02:16:35.519Z,439.64
2023-04-06T02:19:41.870Z,465.13
2023-04-06T02:22:48.971Z,453.49
2023-04-06T02:25:54.916Z,451.45
2023-04-06T02:29:04.323Z,432.51
2023-04-06T02:32:12.484Z,444.91
2023-04-06T02:35:19.464Z,416.36
2023-04-06T02:38:29.094Z,414.10
2023-04-06T02:41:35.842Z,572.70
2023-04-06T02:44:45.595Z,652.37
2023-04-06T02:47:52.921Z,476.53
2023-04-06T02:50:58.852Z,444.65
2023-04-06T02:54:05.676Z,378.80
2023-04-06T02:57:12.411Z,351.30
2023-04-06T03:00:27.574Z,342.66
2023-04-06T03:03:33.718Z,346.05
2023-04-06T03:06:40.720Z,356.67
2023-04-06T03:10:00.399Z,394.24
2023-04-06T03:13:14.668Z,524.72
2023-04-06T03:16:42.230Z,563.35
2023-04-06T03:19:49.117Z,513.38
2023-04-06T03:22:56.644Z,576.73
2023-04-06T03:26:08.130Z,631.47
2023-04-06T03:29:14.185Z,637.82
2023-04-06T03:32:23.617Z,691.95
2023-04-06T03:35:29.715Z,708.60
2023-04-06T03:38:38.668Z,738.83
2023-04-06T03:41:54.326Z,792.18
2023-04-06T03:45:21.467Z,921.21
2023-04-06T03:48:33.676Z,1005.22
2023-04-06T03:51:44.248Z,987.63
2023-04-06T03:54:50.143Z,873.75
2023-04-06T03:57:56.896Z,816.55
2023-04-06T04:01:04.216Z,813.39
2023-04-06T04:04:14.365Z,821.91
2023-04-06T04:07:20.358Z,893.78
2023-04-06T04:10:27.614Z,848.28
2023-04-06T04:13:33.648Z,846.86
2023-04-06T04:16:43.207Z,1098.33
2023-04-06T04:19:54.910Z,959.66
2023-04-06T04:23:07.881Z,794.17
2023-04-06T04:26:24.659Z,810.17
2023-04-06T04:29:31.744Z,790.15
2023-04-06T04:32:42.531Z,772.56
2023-04-06T04:35:53.047Z,753.15
2023-04-06T04:39:02.473Z,755.62
2023-04-06T04:42:12.548Z,744.54
2023-04-06T04:45:26.041Z,808.31
2023-04-06T04:48:33.767Z,797.70
2023-04-06T04:51:44.993Z,854.80
2023-04-06T04:54:53.830Z,912.13
2023-04-06T04:58:07.059Z,904.39
2023-04-06T05:01:28.325Z,879.37
2023-04-06T05:04:36.196Z,840.74
2023-04-06T05:07:47.423Z,839.53
2023-04-06T05:11:06.939Z,831.88
2023-04-06T05:14:19.804Z,817.62
2023-04-06T05:17:29.720Z,798.73
2023-04-06T05:20:37.394Z,721.50
2023-04-06T05:23:46.018Z,704.54
2023-04-06T05:26:53.648Z,698.53
2023-04-06T05:30:03.497Z,704.29
2023-04-06T05:33:14.427Z,737.21
2023-04-06T05:36:35.846Z,701.21
2023-04-06T05:39:51.034Z,681.95
2023-04-06T05:42:58.864Z,686.72
2023-04-06T05:46:05.851Z,740.63
2023-04-06T05:49:12.516Z,787.72
2023-04-06T05:52:19.990Z,873.99
2023-04-06T05:55:30.864Z,944.48
2023-04-06T05:58:50.104Z,798.19
2023-04-06T06:02:02.785Z,648.24
2023-04-06T06:05:13.787Z,578.89
2023-04-06T06:08:22.052Z,536.57
2023-04-06T06:11:34.324Z,495.25
2023-04-06T06:14:41.742Z,472.26
2023-04-06T06:17:48.696Z,442.59
2023-04-06T06:21:07.594Z,425.27
2023-04-06T06:24:14.846Z,418.69
2023-04-06T06:27:23.998Z,399.68
2023-04-06T06:30:31.215Z,410.13
2023-04-06T06:33:38.324Z,431.76
2023-04-06T06:36:47.593Z,436.59
2023-04-06T06:39:55.372Z,440.65
2023-04-06T06:43:05.708Z,430.38
2023-04-06T06:46:16.656Z,419.15
2023-04-06T06:49:24.050Z,395.19
2023-04-06T06:52:30.233Z,380.23
2023-04-06T06:55:37.121Z,404.52
2023-04-06T06:58:46.421Z,350.55
2023-04-06T07:01:54.987Z,348.84
2023-04-06T07:05:01.072Z,317.59
2023-04-06T07:08:10.006Z,286.60
2023-04-06T07:11:16.004Z,302.57
2023-04-06T07:14:25.327Z,297.53
2023-04-06T07:17:31.490Z,275.51
2023-04-06T07:20:38.366Z,257.38
2023-04-06T07:23:47.922Z,243.90
2023-04-06T07:26:55.140Z,245.38
2023-04-06T07:30:05.326Z,238.19
2023-04-06T07:33:12.299Z,231.01
2023-04-06T07:36:19.534Z,210.94
2023-04-06T07:39:27.663Z,149.00
2023-04-06T07:42:36.286Z,137.71
2023-04-06T07:45:49.397Z,138.86
2023-04-06T07:49:06.350Z,135.98
2023-04-06T07:52:14.867Z,139.59
2023-04-06T07:55:22.476Z,137.27
2023-04-06T07:58:29.176Z,137.14
2023-04-06T08:01:38.052Z,147.82
2023-04-06T08:04:46.180Z,132.05
2023-04-06T08:07:52.189Z,138.79
2023-04-06T08:11:00.766Z,140.89
2023-04-06T08:14:08.320Z,148.35
2023-04-06T08:17:17.849Z,147.57
2023-04-06T08:20:26.504Z,144.72
2023-04-06T08:23:38.902Z,143.69
2023-04-06T08:26:48.421Z,145.21
2023-04-06T08:29:55.241Z,145.56
2023-04-06T08:33:15.091Z,139.49
2023-04-06T08:36:24.056Z,136.76
2023-04-06T08:39:31.999Z,143.55
2023-04-06T08:42:48.364Z,140.09
2023-04-06T08:45:54.444Z,151.13
2023-04-06T08:49:08.178Z,146.06
2023-04-06T08:52:16.083Z,137.57
2023-04-06T08:55:23.789Z,143.19
2023-04-06T08:58:40.872Z,150.32
2023-04-06T09:01:50.562Z,153.22
2023-04-06T09:04:59.943Z,149.11
2023-04-06T09:08:07.950Z,145.78
2023-04-06T09:11:15.361Z,146.40
2023-04-06T09:14:44.844Z,163.17
2023-04-06T09:17:50.872Z,170.90
2023-04-06T09:21:08.031Z,182.17
2023-04-06T09:24:16.516Z,145.60
2023-04-06T09:27:36.173Z,145.50
2023-04-06T09:30:53.309Z,161.35
2023-04-06T09:34:03.379Z,164.36
2023-04-06T09:37:24.898Z,173.42
2023-04-06T09:40:31.946Z,174.33
2023-04-06T09:43:38.011Z,166.29
2023-04-06T09:46:59.609Z,177.16
2023-04-06T09:50:09.767Z,159.17
2023-04-06T09:53:23.477Z,161.93
2023-04-06T09:56:37.781Z,187.30
2023-04-06T09:59:56.012Z,176.24
2023-04-06T10:03:12.462Z,179.52
2023-04-06T10:06:26.891Z,190.60
2023-04-06T10:09:37.426Z,193.36
2023-04-06T10:13:00.295Z,202.75
2023-04-06T10:16:08.036Z,229.25
2023-04-06T10:19:28.929Z,186.74
2023-04-06T10:22:52.125Z,171.68
2023-04-06T10:26:06.002Z,178.98
2023-04-06T10:29:13.302Z,186.08
2023-04-06T10:32:20.214Z,186.18
2023-04-06T10:35:29.029Z,205.99
2023-04-06T10:38:42.063Z,201.94
2023-04-06T10:41:53.608Z,194.61
2023-04-06T10:45:01.024Z,236.87
2023-04-06T10:48:20.046Z,202.06
2023-04-06T10:51:32.262Z,182.70
2023-04-06T10:54:43.167Z,177.70
2023-04-06T10:57:59.959Z,183.49
2023-04-06T11:01:21.545Z,176.27
2023-04-06T11:04:29.500Z,174.33
2023-04-06T11:07:35.507Z,193.27
2023-04-06T11:10:42.302Z,199.35
2023-04-06T11:13:54.598Z,173.73
2023-04-06T11:17:01.443Z,159.10
2023-04-06T11:20:16.502Z,205.66
2023-04-06T11:23:29.655Z,170.45
2023-04-06T11:26:35.887Z,188.89
2023-04-06T11:29:47.236Z,188.32
2023-04-06T11:32:53.478Z,169.13
2023-04-06T11:36:02.211Z,155.45
2023-04-06T11:39:08.498Z,160.04
2023-04-06T11:42:16.605Z,166.58
2023-04-06T11:45:25.614Z,182.36
2023-04-06T11:48:32.825Z,160.40
2023-04-06T11:51:41.372Z,185.38
2023-04-06T11:54:50.075Z,176.95
2023-04-06T11:57:56.072Z,159.93
2023-04-06T12:01:10.731Z,181.12
2023-04-06T12:04:16.718Z,183.18
2023-04-06T12:07:23.565Z,156.02
2023-04-06T12:10:29.564Z,171.62
2023-04-06T12:13:36.356Z,157.77
2023-04-06T12:16:45.428Z,148.59
2023-04-06T12:19:52.166Z,131.46
2023-04-06T12:23:00.928Z,133.22
2023-04-06T12:26:12.951Z,121.40
2023-04-06T12:29:19.418Z,121.59
2023-04-06T12:32:28.937Z,151.96
2023-04-06T12:35:42.834Z,139.96
2023-04-06T12:38:55.968Z,190.26
2023-04-06T12:42:02.806Z,215.56
2023-04-06T12:45:13.485Z,206.64
2023-04-06T12:48:22.592Z,225.92
2023-04-06T12:51:32.400Z,231.19
2023-04-06T12:54:38.434Z,151.84
2023-04-06T12:57:45.328Z,124.89
2023-04-06T13:00:51.945Z,136.33
2023-04-06T13:04:05.006Z,128.24
2023-04-06T13:07:11.121Z,126.83
2023-04-06T13:10:18.098Z,136.47
2023-04-06T13:13:28.600Z,129.55
2023-04-06T13:16:35.429Z,140.03
2023-04-06T13:19:43.998Z,154.54
2023-04-06T13:22:50.676Z,191.18
2023-04-06T13:26:04.440Z,154.47
2023-04-06T13:29:11.604Z,147.84
2023-04-06T13:32:17.454Z,152.18
2023-04-06T13:35:27.591Z,133.53
2023-04-06T13:38:34.907Z,175.74
2023-04-06T13:41:41.662Z,179.62
2023-04-06T13:44:52.012Z,182.39
2023-04-06T13:47:58.775Z,178.97
2023-04-06T13:51:15.870Z,170.66
2023-04-06T13:54:23.877Z,184.17
2023-04-06T13:57:30.979Z,195.38
2023-04-06T14:00:43.294Z,192.02
2023-04-06T14:03:50.007Z,199.77
2023-04-06T14:06:59.758Z,206.52
2023-04-06T14:10:14.873Z,213.33
2023-04-06T14:13:21.847Z,243.16
2023-04-06T14:16:28.809Z,240.72
2023-04-06T14:19:37.399Z,258.68
2023-04-06T14:22:46.374Z,241.53
2023-04-06T14:25:53.115Z,284.66
2023-04-06T14:28:59.116Z,303.48
2023-04-06T14:32:05.816Z,286.11
2023-04-06T14:35:14.276Z,331.12
2023-04-06T14:38:23.674Z,361.93
2023-04-06T14:41:29.530Z,309.75
2023-04-06T14:44:38.488Z,251.70
2023-04-06T14:47:44.419Z,229.07
2023-04-06T14:50:57.726Z,212.43
2023-04-06T14:54:16.451Z,218.39
2023-04-06T14:57:23.220Z,206.03
2023-04-06T15:00:29.344Z,219.69
2023-04-06T15:03:39.148Z,243.54
2023-04-06T15:06:45.084Z,250.54
2023-04-06T15:09:54.660Z,233.62
2023-04-06T15:13:00.702Z,228.40
2023-04-06T15:16:09.021Z,286.13
2023-04-06T15:19:15.377Z,242.69
2023-04-06T15:22:24.884Z,222.54
2023-04-06T15:25:36.087Z,242.00
2023-04-06T15:28:43.270Z,290.26
2023-04-06T15:31:49.753Z,285.50
2023-04-06T15:35:09.053Z,232.37
2023-04-06T15:38:26.234Z,230.72
2023-04-06T15:41:40.576Z,255.64
2023-04-06T15:44:46.835Z,231.22
2023-04-06T15:47:54.193Z,246.62
2023-04-06T15:51:01.829Z,226.66
2023-04-06T15:54:09.696Z,247.17
2023-04-06T15:57:26.618Z,242.91
2023-04-06T16:00:33.786Z,236.98
2023-04-06T16:03:40.035Z,242.35
2023-04-06T16:06:46.839Z,270.70
2023-04-06T16:09:56.855Z,292.30
2023-04-06T16:13:06.343Z,309.17
2023-04-06T16:16:13.034Z,291.85
2023-04-06T16:19:21.783Z,264.09
2023-04-06T16:22:29.001Z,260.40
2023-04-06T16:25:35.901Z,271.55
2023-04-06T16:28:44.585Z,300.27
2023-04-06T16:31:51.402Z,287.68
2023-04-06T16:34:57.619Z,288.85
2023-04-06T16:38:04.618Z,302.28
2023-04-06T16:41:17.445Z,325.06
2023-04-06T16:44:27.506Z,303.00
2023-04-06T16:47:33.459Z,280.46
2023-04-06T16:50:40.254Z,255.12
2023-04-06T16:53:47.754Z,240.40
2023-04-06T16:56:54.669Z,252.22
2023-04-06T17:00:05.763Z,260.21
2023-04-06T17:03:19.102Z,241.35
2023-04-06T17:06:26.016Z,230.07
2023-04-06T17:12:59.946Z,231.47
2023-04-06T17:16:10.339Z,211.54
2023-04-06T17:19:16.492Z,222.93
2023-04-06T17:22:24.613Z,227.19
2023-04-06T17:25:35.936Z,234.15
2023-04-06T17:28:42.776Z,251.80
2023-04-06T17:31:54.058Z,236.76
2023-04-06T17:35:00.822Z,223.84
2023-04-06T17:38:08.519Z,233.38
2023-04-06T17:41:17.512Z,226.56
2023-04-06T17:44:24.545Z,234.91
2023-04-06T17:47:36.374Z,247.81
2023-04-06T17:50:47.274Z,245.08
2023-04-06T17:53:55.078Z,237.05
2023-04-06T17:57:02.163Z,235.51
2023-04-06T18:00:12.497Z,250.61
2023-04-06T18:03:23.417Z,259.56
2023-04-06T18:06:33.122Z,269.64
2023-04-06T18:09:46.542Z,284.72
2023-04-06T18:12:54.119Z,277.10
2023-04-06T18:16:10.136Z,324.60
2023-04-06T18:19:19.656Z,376.62
2023-04-06T18:22:25.604Z,412.80
2023-04-06T18:25:35.050Z,382.53
2023-04-06T18:28:41.028Z,334.45
2023-04-06T18:31:50.854Z,346.72
2023-04-06T18:35:00.949Z,335.44
2023-04-06T18:38:08.045Z,327.87
2023-04-06T18:41:16.583Z,330.24
2023-04-06T18:44:26.832Z,308.87
2023-04-06T18:47:32.858Z,296.95
2023-04-06T18:50:42.275Z,277.44
2023-04-06T18:53:51.187Z,291.05
2023-04-06T18:56:58.308Z,330.26
2023-04-06T19:00:13.979Z,332.56
2023-04-06T19:03:22.433Z,343.17
2023-04-06T19:06:31.510Z,395.09
2023-04-06T19:09:43.322Z,368.22
2023-04-06T19:12:50.019Z,352.36
2023-04-06T19:15:57.319Z,377.11
2023-04-06T19:19:03.935Z,382.16
2023-04-06T19:22:15.274Z,363.49
2023-04-06T19:25:22.303Z,376.32
2023-04-06T19:28:29.283Z,384.39
2023-04-06T19:31:45.128Z,412.31
2023-04-06T19:34:52.091Z,505.27
2023-04-06T19:38:04.993Z,507.66
2023-04-06T19:41:12.388Z,458.79
2023-04-06T19:44:18.413Z,460.53
2023-04-06T19:47:25.577Z,412.87
2023-04-06T19:50:31.644Z,426.87
2023-04-06T19:53:41.316Z,409.57
2023-04-06T19:56:48.252Z,400.43
2023-04-06T19:59:56.542Z,448.83
2023-04-06T20:03:03.129Z,472.70
2023-04-06T20:06:15.205Z,445.48
2023-04-06T20:09:24.734Z,424.46
2023-04-06T20:12:31.897Z,393.10
2023-04-06T20:15:38.273Z,414.28
2023-04-06T20:18:46.542Z,446.68
2023-04-06T20:21:52.524Z,499.69
2023-04-06T20:25:10.733Z,467.39
2023-04-06T20:28:24.198Z,480.19
2023-04-06T20:31:32.029Z,477.40
2023-04-06T20:34:38.723Z,506.40
2023-04-06T20:37:48.171Z,516.71
2023-04-06T20:41:00.141Z,522.21
2023-04-06T20:44:09.380Z,511.14
2023-04-06T20:47:15.424Z,537.04
2023-04-06T20:50:22.800Z,525.99
2023-04-06T20:53:28.883Z,507.65
2023-04-06T20:56:40.062Z,487.09
2023-04-06T20:59:48.209Z,448.47
2023-04-06T21:02:56.592Z,452.24
2023-04-06T21:06:02.933Z,421.78
2023-04-06T21:09:09.779Z,373.53
2023-04-06T21:12:19.971Z,385.51
2023-04-06T21:15:26.739Z,395.95
2023-04-06T21:18:34.579Z,387.44
2023-04-06T21:21:41.615Z,403.56
2023-04-06T21:24:47.893Z,458.69
2023-04-06T21:27:58.813Z,455.67
2023-04-06T21:31:11.072Z,461.34
2023-04-06T21:34:18.418Z,467.25
2023-04-06T21:37:24.834Z,396.46
2023-04-06T21:40:34.619Z,428.19
2023-04-06T21:43:43.546Z,419.94
2023-04-06T21:46:50.242Z,480.76
2023-04-06T21:49:56.145Z,448.11
2023-04-06T21:53:03.072Z,452.76
2023-04-06T21:56:09.538Z,466.85
2023-04-06T21:59:18.891Z,425.91
2023-04-06T22:02:32.635Z,448.77
2023-04-06T22:05:41.244Z,423.58
2023-04-06T22:08:49.568Z,432.48
2023-04-06T22:11:56.308Z,678.50
2023-04-06T22:15:04.971Z,457.90
2023-04-06T22:18:11.996Z,446.61
2023-04-06T22:21:18.036Z,426.80
2023-04-06T22:24:24.841Z,443.18
2023-04-06T22:27:31.142Z,435.79
2023-04-06T22:30:40.482Z,427.86
2023-04-06T22:33:46.631Z,434.16
2023-04-06T22:36:53.251Z,424.97
2023-04-06T22:39:59.182Z,410.03
2023-04-06T22:43:05.827Z,435.32
2023-04-06T22:46:14.361Z,420.87
2023-04-06T22:49:21.092Z,538.05
2023-04-06T22:52:27.278Z,579.19
2023-04-06T22:55:41.166Z,423.46
2023-04-06T22:58:47.368Z,420.18
2023-04-06T23:02:00.069Z,404.88
2023-04-06T23:05:13.290Z,394.51
2023-04-06T23:08:20.360Z,389.09
2023-04-06T23:11:26.249Z,392.41
2023-04-06T23:14:33.035Z,397.94
2023-04-06T23:17:42.009Z,384.17
2023-04-06T23:20:48.757Z,390.78
2023-04-06T23:23:54.610Z,387.83
2023-04-06T23:27:01.580Z,400.62
2023-04-06T23:30:08.903Z,390.54
2023-04-06T23:33:18.337Z,399.54
2023-04-06T23:36:24.313Z,391.84
2023-04-06T23:39:31.268Z,380.51
2023-04-06T23:42:37.190Z,373.63
2023-04-06T23:45:44.787Z,398.69
2023-04-06T23:48:53.487Z,393.92
2023-04-06T23:52:00.233Z,378.70
2023-04-06T23:55:11.438Z,378.83
2023-04-06T23:58:18.194Z,387.54
